createdAt,value
2023-04-03T00:03:56.694Z,1.90
2023-04-03T00:08:59.580Z,2.50
2023-04-03T00:14:02.300Z,1.70
2023-04-03T00:19:05.087Z,1.80
2023-04-03T00:24:07.959Z,1.70
2023-04-03T00:29:10.678Z,1.40
2023-04-03T00:34:13.477Z,2.30
2023-04-03T00:39:16.159Z,1.70
2023-04-03T00:44:44.065Z,2.00
2023-04-03T00:49:47.174Z,1.90
2023-04-03T00:54:53.346Z,1.90
2023-04-03T01:00:01.196Z,3.20
2023-04-03T01:05:05.885Z,2.30
2023-04-03T01:10:11.883Z,1.70
2023-04-03T01:15:19.823Z,1.50
2023-04-03T01:20:46.145Z,1.70
2023-04-03T01:25:55.767Z,1.70
2023-04-03T01:31:14.538Z,1.50
2023-04-03T01:36:21.716Z,1.70
2023-04-03T01:41:24.604Z,1.20
2023-04-03T01:46:27.332Z,2.00
2023-04-03T01:51:31.263Z,2.10
2023-04-03T01:56:34.054Z,1.80
2023-04-03T02:01:37.344Z,2.00
2023-04-03T02:06:40.975Z,2.10
2023-04-03T02:11:43.660Z,2.10
2023-04-03T02:16:46.420Z,1.80
2023-04-03T02:21:49.101Z,2.00
2023-04-03T02:26:51.868Z,2.10
2023-04-03T02:31:54.704Z,2.00
2023-04-03T02:36:57.397Z,2.10
2023-04-03T02:42:00.265Z,2.60
2023-04-03T02:47:03.843Z,1.80
2023-04-03T02:52:06.675Z,2.80
2023-04-03T02:57:10.249Z,1.90
2023-04-03T03:02:13.126Z,1.60
2023-04-03T03:07:15.971Z,2.00
2023-04-03T03:12:22.797Z,1.70
2023-04-03T03:17:25.844Z,1.30
2023-04-03T03:22:30.072Z,3.10
2023-04-03T03:27:34.085Z,3.80
2023-04-03T03:37:39.519Z,2.00
2023-04-03T03:42:42.312Z,2.10
2023-04-03T03:47:45.093Z,2.50
2023-04-03T03:52:48.055Z,2.00
2023-04-03T03:57:51.088Z,2.10
2023-04-03T04:02:54.082Z,1.90
2023-04-03T04:07:58.022Z,3.70
2023-04-03T04:13:00.820Z,5.00
2023-04-03T04:18:03.772Z,4.90
2023-04-03T04:23:06.621Z,2.90
2023-04-03T04:28:09.308Z,2.10
2023-04-03T04:33:12.564Z,1.70
2023-04-03T04:38:15.301Z,1.90
2023-04-03T04:43:18.299Z,2.10
2023-04-03T04:48:21.146Z,1.80
2023-04-03T04:53:23.998Z,2.30
2023-04-03T04:58:26.948Z,1.60
2023-04-03T05:03:29.735Z,1.50
2023-04-03T05:08:33.270Z,2.10
2023-04-03T05:13:36.187Z,2.80
2023-04-03T05:18:39.080Z,2.00
2023-04-03T05:23:42.407Z,2.40
2023-04-03T05:33:49.208Z,1.90
2023-04-03T05:38:52.345Z,1.90
2023-04-03T05:43:55.623Z,2.10
2023-04-03T05:48:58.449Z,2.10
2023-04-03T05:54:08.416Z,2.00
2023-04-03T05:59:12.028Z,2.40
2023-04-03T06:04:15.921Z,2.80
2023-04-03T06:09:20.974Z,2.20
2023-04-03T06:14:23.833Z,1.60
2023-04-03T06:19:28.334Z,1.80
2023-04-03T06:24:32.323Z,2.30
2023-04-03T06:29:37.048Z,3.00
2023-04-03T06:34:40.858Z,1.90
2023-04-03T06:45:06.134Z,2.10
2023-04-03T06:50:12.467Z,2.20
2023-04-03T06:55:15.299Z,1.90
2023-04-03T07:00:18.648Z,2.30
2023-04-03T07:05:21.385Z,2.60
2023-04-03T07:10:24.218Z,1.70
2023-04-03T07:15:27.192Z,2.20
2023-04-03T07:20:30.136Z,1.60
2023-04-03T07:25:32.990Z,2.10
2023-04-03T07:30:36.259Z,2.10
2023-04-03T07:40:47.378Z,2.30
2023-04-03T07:45:53.174Z,3.70
2023-04-03T07:51:02.683Z,2.80
2023-04-03T07:56:06.004Z,2.50
2023-04-03T08:01:09.367Z,2.60
2023-04-03T08:06:15.998Z,2.30
2023-04-03T08:11:19.926Z,1.80
2023-04-03T08:21:30.265Z,2.80
2023-04-03T08:26:33.212Z,2.50
2023-04-03T08:31:36.196Z,2.10
2023-04-03T08:36:39.413Z,1.50
2023-04-03T08:41:44.874Z,4.60
2023-04-03T08:46:58.566Z,1.70
2023-04-03T08:52:06.694Z,3.30
2023-04-03T08:57:13.226Z,2.00
2023-04-03T09:02:35.957Z,2.10
2023-04-03T09:07:51.673Z,3.30
2023-04-03T09:13:04.471Z,2.10
2023-04-03T09:18:17.946Z,1.80
2023-04-03T09:28:29.321Z,2.30
2023-04-03T09:33:35.927Z,5.00
2023-04-03T09:38:39.519Z,2.00
2023-04-03T09:43:54.653Z,2.70
2023-04-03T09:49:09.394Z,3.40
2023-04-03T09:54:38.815Z,2.00
2023-04-03T09:59:46.686Z,8.00
2023-04-03T10:05:06.259Z,2.50
2023-04-03T10:10:23.750Z,2.40
2023-04-03T10:15:46.560Z,2.90
2023-04-03T10:20:53.407Z,3.10
2023-04-03T10:26:27.230Z,2.30
2023-04-03T10:32:09.619Z,2.50
2023-04-03T10:37:19.732Z,1.90
2023-04-03T10:42:40.920Z,2.20
2023-04-03T10:47:50.036Z,2.90
2023-04-03T10:53:20.948Z,2.50
2023-04-03T10:58:41.518Z,5.00
2023-04-03T11:03:57.166Z,4.30
2023-04-03T11:09:09.825Z,3.40
2023-04-03T11:14:36.819Z,2.60
2023-04-03T11:19:53.109Z,2.50
2023-04-03T11:25:21.083Z,2.10
2023-04-03T11:30:34.552Z,2.00
2023-04-03T11:35:38.245Z,5.40
2023-04-03T11:40:41.724Z,3.80
2023-04-03T11:46:06.906Z,2.60
2023-04-03T11:51:13.289Z,2.40
2023-04-03T11:56:25.777Z,2.70
2023-04-03T12:01:47.460Z,5.80
2023-04-03T12:06:51.052Z,2.50
2023-04-03T12:11:55.524Z,4.60
2023-04-03T12:16:59.092Z,5.00
2023-04-03T12:22:02.092Z,3.30
2023-04-03T12:27:18.740Z,7.30
2023-04-03T12:32:27.628Z,3.50
2023-04-03T12:37:39.585Z,4.30
2023-04-03T12:43:18.617Z,2.90
2023-04-03T12:48:27.156Z,4.20
2023-04-03T12:53:35.351Z,2.10
2023-04-03T12:58:38.123Z,7.50
2023-04-03T13:03:44.878Z,2.60
2023-04-03T13:08:58.090Z,3.00
2023-04-03T13:14:06.994Z,3.50
2023-04-03T13:19:18.701Z,6.40
2023-04-03T13:24:21.444Z,3.80
2023-04-03T13:29:36.790Z,4.60
2023-04-03T13:34:47.604Z,5.70
2023-04-03T13:45:40.793Z,2.90
2023-04-03T13:56:04.091Z,2.80
2023-04-03T14:01:21.381Z,3.20
2023-04-03T14:06:25.362Z,3.00
2023-04-03T14:11:31.302Z,3.70
2023-04-03T14:16:39.624Z,3.70
2023-04-03T14:21:45.067Z,3.00
2023-04-03T14:26:49.826Z,4.70
2023-04-03T14:32:11.597Z,3.70
2023-04-03T14:37:24.160Z,3.50
2023-04-03T14:42:33.205Z,5.00
2023-04-03T14:47:41.920Z,2.50
2023-04-03T14:52:46.430Z,4.40
2023-04-03T14:57:49.576Z,7.50
2023-04-03T15:07:58.275Z,4.70
2023-04-03T15:13:01.620Z,7.70
2023-04-03T15:18:06.690Z,7.60
2023-04-03T15:23:12.856Z,7.80
2023-04-03T15:28:23.648Z,8.10
2023-04-03T15:33:27.252Z,9.80
2023-04-03T15:38:30.438Z,5.40
2023-04-03T15:43:34.826Z,6.30
2023-04-03T15:48:37.817Z,11.40
2023-04-03T15:53:40.589Z,8.50
2023-04-03T15:58:43.312Z,6.80
2023-04-03T16:03:46.595Z,8.10
2023-04-03T16:08:50.549Z,9.40
2023-04-03T16:13:54.167Z,4.00
2023-04-03T16:18:57.046Z,6.40
2023-04-03T16:24:00.945Z,5.20
2023-04-03T16:29:03.637Z,6.80
2023-04-03T16:34:06.493Z,6.80
2023-04-03T16:39:10.986Z,5.50
2023-04-03T16:44:14.872Z,7.50
2023-04-03T16:49:17.715Z,5.50
2023-04-03T16:54:20.871Z,7.80
2023-04-03T16:59:24.020Z,4.60
2023-04-03T17:09:30.205Z,7.90
2023-04-03T17:14:32.904Z,8.20
2023-04-03T17:19:38.057Z,7.50
2023-04-03T17:24:40.870Z,4.40
2023-04-03T17:29:43.672Z,3.80
2023-04-03T17:34:47.812Z,5.00
2023-04-03T17:39:50.499Z,5.20
2023-04-03T17:44:53.288Z,4.30
2023-04-03T17:49:56.091Z,5.40
2023-04-03T17:54:58.769Z,5.50
2023-04-03T18:00:01.492Z,18.30
2023-04-03T18:05:04.719Z,14.70
2023-04-03T18:15:12.053Z,5.90
2023-04-03T18:20:16.372Z,8.60
2023-04-03T18:25:19.817Z,11.30
2023-04-03T18:30:23.141Z,11.40
2023-04-03T18:35:26.317Z,9.20
2023-04-03T18:40:29.115Z,9.70
2023-04-03T18:45:32.330Z,9.80
2023-04-03T18:55:37.808Z,8.10
2023-04-03T19:00:41.714Z,12.70
2023-04-03T19:05:44.927Z,39.10
2023-04-03T19:10:47.795Z,52.60
2023-04-03T19:15:52.256Z,9.80
2023-04-03T19:20:56.962Z,10.50
2023-04-03T19:26:01.196Z,11.60
2023-04-03T19:31:12.398Z,12.20
2023-04-03T19:36:16.009Z,13.10
2023-04-03T19:41:22.602Z,18.30
2023-04-03T19:46:28.134Z,15.90
2023-04-03T19:51:31.207Z,9.80
2023-04-03T19:56:33.909Z,8.30
2023-04-03T20:01:36.887Z,6.90
2023-04-03T20:11:42.892Z,6.40
2023-04-03T20:16:47.319Z,7.50
2023-04-03T20:21:50.421Z,5.50
2023-04-03T20:26:53.136Z,6.20
2023-04-03T20:31:56.177Z,7.60
2023-04-03T20:42:03.825Z,6.60
2023-04-03T20:47:06.528Z,7.60
2023-04-03T20:52:10.211Z,8.70
2023-04-03T20:57:14.855Z,8.30
2023-04-03T21:02:17.537Z,6.60
2023-04-03T21:07:58.763Z,8.30
2023-04-03T21:13:39.237Z,6.20
2023-04-03T21:18:51.062Z,4.60
2023-04-03T21:23:54.713Z,6.30
2023-04-03T21:28:57.756Z,6.40
2023-04-03T21:34:00.986Z,4.30
2023-04-03T21:39:04.523Z,5.40
2023-04-03T21:44:07.210Z,6.90
2023-04-03T21:49:09.891Z,5.80
2023-04-03T21:54:12.679Z,5.80
2023-04-03T21:59:16.056Z,4.90
2023-04-03T22:04:18.925Z,6.90
2023-04-03T22:09:21.734Z,5.90
2023-04-03T22:14:24.834Z,6.80
2023-04-03T22:24:30.651Z,4.90
2023-04-03T22:29:33.318Z,5.60
2023-04-03T22:34:37.884Z,12.60
2023-04-03T22:39:40.566Z,13.90
2023-04-03T22:44:43.376Z,12.30
2023-04-03T22:49:46.178Z,8.90
2023-04-03T22:54:48.917Z,6.90
2023-04-03T22:59:51.702Z,7.00
2023-04-03T23:04:54.550Z,12.40
2023-04-03T23:09:58.222Z,9.20
2023-04-03T23:15:00.940Z,10.30
2023-04-03T23:20:05.462Z,13.20
2023-04-03T23:25:08.611Z,7.20
2023-04-03T23:35:14.671Z,9.20
2023-04-03T23:40:17.672Z,7.90
2023-04-03T23:45:20.397Z,6.20
2023-04-03T23:50:23.174Z,4.80
2023-04-03T23:55:26.358Z,4.20
